Relevés horaires Matro (Suisse)


Relevés horaires à Matro - Mardi 13 Avr. 2021
Heure UTC1 Température [°C] Vent [km/h] Hum. [%] Pres.4 [hPa] Visi. [Km] Nébu. [octa] Préc.5 [mm] Cond.
2m. Res. Ros. Dir.2 Vit. Moy. Raf.3
23:00 -9.5 -20.7 -16.7 NNO 46.3 -- 70.4 56 850(-0.1/3h) -- -- -- --
22:00 -9.2 -20.8 -16.0 NNO 51.9 -- 75.9 58 850(0.0/3h) -- -- -- --
21:00 -9.2 -20.5 -15.4 NNO 48.2 -- 85.2 61 850(0.6/3h) -- -- -- --
20:00 -8.9 -21 -15.7 NNO 59.3 -- 85.2 58 850(0.5/3h) -- -- -- --
19:00 -8.7 -20.5 -15.8 NNO 55.6 -- 77.8 56 850(0.3/3h) -- -- -- --
18:00 -8.7 -19.5 -15.2 NNO 44.4 -- 75.9 59 850(0.1/3h) -- -- -- --
17:00 -8.5 -18 -15.2 NNO 33.3 -- 66.7 58 850(-0.2/3h) -- -- -- --
16:00 -8.0 -17.6 -15.0 NNO 35.2 -- 61.1 57 850(-0.2/3h) -- -- -- --
15:00 -7.8 -18.3 -15.4 NNO 44.4 -- 75.9 54 850(-0.1/3h) -- -- -- --
14:00 -7.4 -16.8 -15.0 NNO 35.2 -- 75.9 54 850(0.4/3h) -- -- -- --
13:00 -7.5 -17.7 -16.4 NNO 42.6 -- 66.7 49 850(0.6/3h) -- -- -- --
12:00 -7.7 -18.1 -15.9 NNO 44.4 -- 88.9 52 850(0.8/3h) -- -- -- --
11:00 -7.7 -18.3 -16.2 NNO 46.3 -- 70.4 50 850(1.2/3h) -- -- -- --
10:00 -8.3 -19.3 -16.0 NNO 48.2 -- 79.6 54 850(1.2/3h) -- -- -- --
09:00 -8.8 -20.5 -16.4 NNO 53.7 -- 88.9 54 850(0.8/3h) -- -- -- --
08:00 -9.0 -21.3 -16.7 NNO 61.1 -- 88.9 53 850(0.8/3h) -- -- -- --
07:00 -9.4 -21.4 -16.5 NO 55.6 -- 88.9 56 850(0.9/3h) -- -- -- --
06:00 -9.7 -22.1 -16.0 NNO 59.3 -- 107.4 60 850(0.8/3h) -- -- -- --
05:00 -10.0 -22.9 -16.8 NNO 63.0 -- 98.2 57 850(0.3/3h) -- -- -- --
04:00 -10.1 -23.1 -16.3 NNO 64.8 -- 100.0 60 850(0.2/3h) -- -- -- --
03:00 -9.9 -23.5 -16.8 NNO 74.1 -- 107.4 57 850(0.0/3h) -- -- -- --
02:00 -9.9 -23 -16.3 NNO 66.7 -- 103.7 59 850(-0.6/3h) -- -- -- --
01:00 -9.8 -23.5 -15.7 NNO 75.9 -- 105.6 62 850(-0.7/3h) -- -- -- --
00:00 -9.3 -22 -16.2 NNO 64.8 -- 107.4 57 850(-0.4/3h) -- -- -- --

1 Coordinated Universal Time. Actuellement il est 07:00 locale et 05:00 UTC.

2 Le vent souffle depuis la direction indiquée vers la direction oposée.

3 Les rafales max. sont disponible 40 min après l'heure du relevé.

4 Pour les stations d'altitude (plus de 600m) le géopotentiel du niveau le plus proche de la pression obligatoire est indiqué.

5 Les stations disposant d'un diffuseur peuvent indiquer "trace". Cela signifie que des précipitations ont touchés le sol mais que la quantité est inférieure à 0.1 mm.

Copyright

Les données affichées sur cette page sont la propriété exclusive de Météo Suisse.

Récapitulatif de la journée
Température [°C] Vent [km/h] Ensoleillement4 [h] Precipitations totale5 [mm] Pression [Hpa]
Min1 Max.2 Moy.3 Max. Min Max.
-10.1 -7.4 0 107.4 10 h 48 min 0 850.0 850.0

1 Température minimale relevée entre 18:00 UTC la veille et 18:00 UTC le jour donné.

2 Température maximale relevée entre 06:00 UTC le jour donné et 06:00 UTC le lendemain.

3 Vent moyen de la journée basé sur les relevés horaires.

4 Ensoleillement en heures relevé entre 06:00 UTC la veille et 06:00 UTC le jour donné.

5 Précipitations totales tombées entre 06:00 UTC la jour donné et 06:00 UTC le lendemain.

Graphiques horaires